Altoona, Florida
Current Conditions -  °F | °C
As of 12:53 AM on Thursday 23 Oct 2014 (Local Time) from KLEE Reporting Station
Clear Clear  
Wind Chill: 64°   Ceiling: Unl
Heat Index: 64°   Visibility: 10mi
Dew Point: 55°   Wind: 8mph
Humidity: 72%   Direction: 40°NE
Pressure: 30.02"   Gusts: NA
Location:  28.97°N, 81.65°W
Report Text: KLEE 230453Z AUTO 04007KT 10SM CLR 18/13 A3002 RMK AO2 SLP163 T01780128 402890172
Loading
Personal Weather Stations






























Interactive Weather Map
Tropical Storm Tracking
New forecast layout! Learn more

10-Day Weather Forecast

Advertisements
Track Severe Weather on mobile